createdAt,value
2023-03-02T00:02:22.377Z,97230.06
2023-03-02T00:07:31.913Z,97236.72
2023-03-02T00:12:34.314Z,97232.53
2023-03-02T00:17:37.196Z,97229.69
2023-03-02T00:22:40.613Z,97229.06
2023-03-02T00:27:42.559Z,97229.91
2023-03-02T00:32:45.693Z,97225.16
2023-03-02T00:37:48.210Z,97227.22
2023-03-02T00:42:50.000Z,97223.94
2023-03-02T00:47:51.952Z,97222.25
2023-03-02T00:52:53.800Z,97216.88
2023-03-02T00:57:55.566Z,97210.25
2023-03-02T01:03:02.238Z,97209.81
2023-03-02T01:08:04.390Z,97207.75
2023-03-02T01:13:07.080Z,97205.84
2023-03-02T01:18:08.773Z,97191.47
2023-03-02T01:23:10.494Z,97188.97
2023-03-02T01:28:12.761Z,97187.06
2023-03-02T01:33:14.704Z,97182.28
2023-03-02T01:38:16.476Z,97176.88
2023-03-02T01:43:18.365Z,97183.06
2023-03-02T01:48:39.020Z,97172.94
2023-03-02T01:53:46.570Z,97172.34
2023-03-02T01:58:53.758Z,97169.25
2023-03-02T02:03:57.211Z,97164.13
2023-03-02T02:09:01.512Z,97153.81
2023-03-02T02:14:06.580Z,97149.25
2023-03-02T02:19:39.419Z,97144.25
2023-03-02T02:24:52.257Z,97143.81
2023-03-02T02:29:54.463Z,97139.63
2023-03-02T02:35:18.369Z,97146.69
2023-03-02T02:40:38.340Z,97126.34
2023-03-02T02:45:41.633Z,97128.06
2023-03-02T02:50:44.358Z,97126.81
2023-03-02T02:55:51.017Z,97127.31
2023-03-02T03:00:54.674Z,97123.19
2023-03-02T03:05:59.691Z,97126.97
2023-03-02T03:11:02.211Z,97118.22
2023-03-02T03:16:08.051Z,97114.47
2023-03-02T03:21:10.575Z,97112.78
2023-03-02T03:26:15.092Z,97115.03
2023-03-02T03:31:17.366Z,97111.75
2023-03-02T03:36:19.410Z,97105.72
2023-03-02T03:41:22.132Z,97106.53
2023-03-02T03:46:24.656Z,97103.03
2023-03-02T03:51:27.432Z,97113.41
2023-03-02T03:56:33.504Z,97112.94
2023-03-02T04:01:38.760Z,97115.22
2023-03-02T04:06:41.558Z,97109.41
2023-03-02T04:11:44.958Z,97111.13
2023-03-02T04:16:47.788Z,97111.50
2023-03-02T04:21:52.363Z,97109.84
2023-03-02T04:26:54.973Z,97100.53
2023-03-02T04:31:56.812Z,97095.56
2023-03-02T04:37:00.582Z,97096.66
2023-03-02T04:42:02.566Z,97086.22
2023-03-02T04:47:04.280Z,97084.59
2023-03-02T04:52:06.685Z,97084.59
2023-03-02T04:57:09.881Z,97081.75
2023-03-02T05:02:11.848Z,97085.38
2023-03-02T05:07:13.633Z,97086.03
2023-03-02T05:12:15.483Z,97080.84
2023-03-02T05:17:17.260Z,97083.56
2023-03-02T05:22:19.372Z,97087.50
2023-03-02T05:27:21.050Z,97086.50
2023-03-02T05:32:22.723Z,97088.34
2023-03-02T05:37:24.536Z,97084.59
2023-03-02T05:42:26.424Z,97091.44
2023-03-02T05:47:28.108Z,97089.41
2023-03-02T05:52:29.837Z,97088.56
2023-03-02T05:57:31.557Z,97095.19
2023-03-02T06:02:33.253Z,97089.56
2023-03-02T06:07:35.033Z,97093.56
2023-03-02T06:12:37.193Z,97103.31
2023-03-02T06:17:38.922Z,97104.63
2023-03-02T06:22:45.483Z,97109.16
2023-03-02T06:27:49.890Z,97104.84
2023-03-02T06:32:51.846Z,97117.47
2023-03-02T06:37:53.726Z,97110.44
2023-03-02T06:42:55.366Z,97106.31
2023-03-02T06:47:57.200Z,97107.31
2023-03-02T06:52:59.018Z,97112.00
2023-03-02T06:58:00.717Z,97122.72
2023-03-02T07:03:02.523Z,97117.69
2023-03-02T07:08:04.705Z,97126.78
2023-03-02T07:13:08.732Z,97133.34
2023-03-02T07:18:10.832Z,97131.22
2023-03-02T07:23:12.699Z,97130.53
2023-03-02T07:28:15.724Z,97139.81
2023-03-02T07:33:17.389Z,97137.22
2023-03-02T07:38:20.295Z,97136.03
2023-03-02T07:43:24.108Z,97134.91
2023-03-02T07:48:28.495Z,97138.72
2023-03-02T07:53:33.063Z,97140.00
2023-03-02T07:58:35.428Z,97131.09
2023-03-02T08:03:38.873Z,97125.94
2023-03-02T08:08:40.579Z,97129.88
2023-03-02T08:13:43.005Z,97117.03
2023-03-02T08:18:44.820Z,97135.16
2023-03-02T08:23:46.738Z,97136.28
2023-03-02T08:28:48.933Z,97130.00
2023-03-02T08:33:50.739Z,97113.09
2023-03-02T08:38:52.476Z,97127.97
2023-03-02T08:43:57.291Z,97119.75
2023-03-02T08:48:59.232Z,97115.31
2023-03-02T08:54:01.237Z,97110.56
2023-03-02T08:59:06.182Z,97106.41
2023-03-02T09:04:09.586Z,97101.19
2023-03-02T09:09:13.217Z,97100.81
2023-03-02T09:14:15.205Z,97107.47
2023-03-02T09:19:16.950Z,97110.94
2023-03-02T09:24:22.978Z,97108.25
2023-03-02T09:29:24.649Z,97111.09
2023-03-02T09:34:26.462Z,97107.88
2023-03-02T09:39:28.220Z,97103.03
2023-03-02T09:44:42.010Z,97099.53
2023-03-02T09:49:57.859Z,97097.50
2023-03-02T09:55:11.515Z,97095.88
2023-03-02T10:00:24.459Z,97096.44
2023-03-02T10:05:45.275Z,97092.47
2023-03-02T10:11:00.107Z,97084.63
2023-03-02T10:16:42.716Z,97091.09
2023-03-02T10:21:47.465Z,97091.56
2023-03-02T10:26:54.290Z,97089.03
2023-03-02T10:32:16.453Z,97089.19
2023-03-02T10:37:29.339Z,97085.53
2023-03-02T10:42:37.906Z,97083.16
2023-03-02T10:47:39.700Z,97080.25
2023-03-02T10:52:59.506Z,97071.06
2023-03-02T10:58:21.841Z,97064.88
2023-03-02T11:03:23.817Z,97067.38
2023-03-02T11:08:27.872Z,97061.66
2023-03-02T11:13:35.642Z,97051.81
2023-03-02T11:18:43.764Z,97054.84
2023-03-02T11:24:05.787Z,97048.88
2023-03-02T11:29:25.904Z,97044.50
2023-03-02T11:34:56.847Z,97037.94
2023-03-02T11:40:26.492Z,97033.00
2023-03-02T11:45:36.296Z,97035.72
2023-03-02T11:50:51.224Z,97033.19
2023-03-02T11:55:53.008Z,97035.09
2023-03-02T12:00:55.820Z,97024.03
2023-03-02T12:06:07.287Z,97021.25
2023-03-02T12:11:35.262Z,97009.69
2023-03-02T12:16:43.577Z,97011.53
2023-03-02T12:22:00.627Z,97001.84
2023-03-02T12:27:20.884Z,97010.56
2023-03-02T12:32:27.844Z,97001.22
2023-03-02T12:37:34.972Z,97007.22
2023-03-02T12:43:08.935Z,97003.72
2023-03-02T12:48:52.693Z,96998.13
2023-03-02T12:54:12.157Z,96983.25
2023-03-02T12:59:26.736Z,96971.47
2023-03-02T13:04:28.546Z,96979.09
2023-03-02T13:09:30.421Z,96977.31
2023-03-02T13:14:32.682Z,96969.75
2023-03-02T13:19:34.615Z,96972.00
2023-03-02T13:24:50.253Z,96970.16
2023-03-02T13:29:55.468Z,96968.94
2023-03-02T13:34:59.621Z,96965.59
2023-03-02T13:40:04.254Z,96968.66
2023-03-02T13:45:17.200Z,96962.38
2023-03-02T13:50:21.231Z,96962.38
2023-03-02T13:55:23.862Z,96969.28
2023-03-02T14:00:28.494Z,96952.53
2023-03-02T14:05:33.468Z,96953.91
2023-03-02T14:10:35.316Z,96952.22
2023-03-02T14:15:43.258Z,96944.00
2023-03-02T14:20:46.152Z,96942.63
2023-03-02T14:25:48.075Z,96943.66
2023-03-02T14:30:54.839Z,96945.06
2023-03-02T14:35:58.697Z,96946.44
2023-03-02T14:41:00.468Z,96934.34
2023-03-02T14:46:02.261Z,96941.63
2023-03-02T14:51:04.669Z,96942.22
2023-03-02T14:56:07.974Z,96937.56
2023-03-02T15:01:14.884Z,96931.44
2023-03-02T15:06:26.070Z,96933.84
2023-03-02T15:11:29.037Z,96933.38
2023-03-02T15:16:33.841Z,96940.25
2023-03-02T15:21:35.627Z,96938.25
2023-03-02T15:26:39.223Z,96943.16
2023-03-02T15:31:41.048Z,96941.44
2023-03-02T15:36:45.924Z,96940.22
2023-03-02T15:41:47.984Z,96944.66
2023-03-02T15:46:55.211Z,96950.16
2023-03-02T15:51:57.662Z,96949.28
2023-03-02T15:56:59.525Z,96955.09
2023-03-02T16:02:08.090Z,96959.25
2023-03-02T16:07:09.840Z,96961.72
2023-03-02T16:12:11.790Z,96968.38
2023-03-02T16:17:14.446Z,96964.84
2023-03-02T16:22:16.172Z,96965.84
2023-03-02T16:27:18.040Z,96980.38
2023-03-02T16:32:21.959Z,96976.69
2023-03-02T16:37:23.736Z,96986.69
2023-03-02T16:42:25.663Z,96990.63
2023-03-02T16:47:27.366Z,96993.72
2023-03-02T16:52:29.035Z,97001.16
2023-03-02T16:57:30.712Z,97007.78
2023-03-02T17:02:32.477Z,97014.09
2023-03-02T17:07:34.589Z,97026.72
2023-03-02T17:12:36.334Z,97035.44
2023-03-02T17:17:38.870Z,97037.88
2023-03-02T17:22:41.870Z,97034.56
2023-03-02T17:27:44.942Z,97048.53
2023-03-02T17:32:47.153Z,97051.03
2023-03-02T17:37:48.892Z,97061.72
2023-03-02T17:42:54.562Z,97073.91
2023-03-02T17:47:58.919Z,97070.84
2023-03-02T17:53:00.846Z,97075.56
2023-03-02T17:58:02.764Z,97083.66
2023-03-02T18:03:04.946Z,97086.06
2023-03-02T18:08:06.692Z,97087.81
2023-03-02T18:13:08.787Z,97104.56
2023-03-02T18:18:10.515Z,97096.81
2023-03-02T18:23:13.068Z,97097.19
2023-03-02T18:28:16.558Z,97102.50
2023-03-02T18:33:18.277Z,97104.50
2023-03-02T18:38:19.972Z,97108.47
2023-03-02T18:43:21.999Z,97118.38
2023-03-02T18:48:24.903Z,97115.41
2023-03-02T18:53:26.990Z,97114.41
2023-03-02T18:58:33.940Z,97114.56
2023-03-02T19:03:37.057Z,97117.88
2023-03-02T19:08:38.941Z,97113.56
2023-03-02T19:13:40.955Z,97126.50
2023-03-02T19:18:42.615Z,97132.19
2023-03-02T19:23:46.226Z,97127.53
2023-03-02T19:28:48.853Z,97141.66
2023-03-02T19:33:50.581Z,97148.69
2023-03-02T19:38:52.202Z,97152.53
2023-03-02T19:43:54.051Z,97153.50
2023-03-02T19:48:55.974Z,97169.31
2023-03-02T19:53:57.901Z,97163.84
2023-03-02T19:59:00.307Z,97165.41
2023-03-02T20:04:02.623Z,97164.34
2023-03-02T20:09:06.544Z,97182.28
2023-03-02T20:14:08.464Z,97179.81
2023-03-02T20:19:11.280Z,97184.28
2023-03-02T20:24:16.778Z,97187.25
2023-03-02T20:29:18.989Z,97181.47
2023-03-02T20:34:20.871Z,97191.72
2023-03-02T20:39:32.171Z,97202.50
2023-03-02T20:44:34.832Z,97202.25
2023-03-02T20:49:37.860Z,97199.06
2023-03-02T20:54:42.687Z,97200.03
2023-03-02T20:59:45.882Z,97203.06
2023-03-02T21:04:50.885Z,97205.44
2023-03-02T21:09:52.626Z,97208.03
2023-03-02T21:14:54.426Z,97216.28
2023-03-02T21:19:57.163Z,97204.72
2023-03-02T21:24:59.035Z,97208.53
2023-03-02T21:30:03.237Z,97217.22
2023-03-02T21:35:05.281Z,97199.78
2023-03-02T21:40:10.463Z,97212.75
2023-03-02T21:45:12.941Z,97214.41
2023-03-02T21:50:22.406Z,97214.88
2023-03-02T21:55:24.093Z,97211.09
2023-03-02T22:00:34.268Z,97212.28
2023-03-02T22:05:36.362Z,97218.25
2023-03-02T22:10:41.680Z,97212.47
2023-03-02T22:15:47.960Z,97217.06
2023-03-02T22:20:51.181Z,97222.81
2023-03-02T22:25:55.684Z,97218.19
2023-03-02T22:30:59.763Z,97229.22
2023-03-02T22:36:12.160Z,97231.47
2023-03-02T22:41:18.047Z,97218.16
2023-03-02T22:46:21.695Z,97229.91
2023-03-02T22:51:28.185Z,97232.56
2023-03-02T22:56:38.284Z,97240.09
2023-03-02T23:01:42.696Z,97237.84
2023-03-02T23:06:46.400Z,97226.50
2023-03-02T23:11:50.324Z,97230.25
2023-03-02T23:16:55.096Z,97236.28
2023-03-02T23:21:58.026Z,97242.16
2023-03-02T23:26:59.542Z,97235.69
2023-03-02T23:32:01.689Z,97229.81
2023-03-02T23:37:03.619Z,97237.22
2023-03-02T23:42:05.841Z,97241.84
2023-03-02T23:47:07.951Z,97226.75
2023-03-02T23:52:09.830Z,97239.97
2023-03-02T23:57:11.933Z,97235.63
